Mico, TX (78056)

1:23 AM CDT on September 19, 2014 (GMT -0500)
Lakehills Tx | Change Station
CLOSE
Current Station
Personal Weather Station
Location: Lakehills, TX
Elevation: 1122 ft
Nearby Weather Stations

Elev 1122 ft 29.57 °N, 98.94 °W | Updated 1 minute ago

Mostly Cloudy
Mostly Cloudy
75.6 °F
Feels Like 76 °F
N
1.1
Wind Variable Wind from NNW

Today
High -- | Low -- °F
--% Chance of Precip.
Yesterday
High -- | Low -- °F
Precip. -- in
7:22 AM 7:35 PM
Waning Crescent, 21% visible
Pressure 29.93 in
Visibility 10.0 miles
Clouds Mostly Cloudy 900 ft
Heat Index 76 °F
Dew Point 71 °F
Humidity 87%
Rainfall 0.00 in
Snow Depth Not available.
UV 0 out of 12
Pollen 7.80 out of 12
Ozone Good
PM2.5 Good
Flu Activity Not available.
METAR K5C1 190615Z AUTO 00000KT 10SM BKN009 22/20 A2993 RMK AO1

More Conditions Fewer Conditions

Pressure 29.93 in
Visibility 10.0 miles
Clouds Mostly Cloudy 900 ft
Heat Index 76 °F
Dew Point 71 °F
Humidity 87%
Rainfall 0.00 in
Snow Depth Not available.
UV 0 out of 12
Pollen 7.80 out of 12
Ozone Good
PM2.5 Good
Flu Activity Not available.
METAR K5C1 190615Z AUTO 00000KT 10SM BKN009 22/20 A2993 RMK AO1

More Conditions Fewer Conditions

Nowcast | as of 1:05 am CDT on September 19, 2014

Flash Flood Watch in effect until 7 am CDT this morning... scattered showers and thunderstorms will continue through 3 am. Steering winds are very weak...so there is no common direction of movement for the storms. Rainfall amounts will average 1/2 to 1 inch...but some spots could receive up to 3 inches of rain.

×

10-Day Weather Forecast

Almanac

Astronomy

Sep. 19, 2014 Rise Set
Actual Time 7:22 AM CDT 7:35 PM CDT
Civil Twilight 6:58 AM CDT 7:59 PM CDT
Nautical Twilight 6:30 AM CDT 8:27 PM CDT
Astronomical Twilight 6:02 AM CDT 8:55 PM CDT
Moon 3:23 AM CDT 4:52 PM CDT
Length of Visible Light 13h 00m
Length of Day
12h 13m
Tomorrow will be 1m 45s shorter.
Waning Crescent, 21% of the Moon is Illuminated
Today
Waning Crescent
Sep 24
New
Oct 1
First Quarter
Oct 8
Full
Oct 15
Last Quarter

Today's Extremes

State Highs State Lows

Community

WunderPhotos

Upload Photos

1,754,575 photos uploaded!

Nearby

Air Quality

  Air Quality AQ Index Pollutant
Yesterday Good
OZONE
Yesterday Good
PM2.5
Current Good
PM2.5
Current Good
OZONE
Thursday Good
OZONE
Thursday Good
PM10
Friday Good
PM10
Friday Good
OZONE
Saturday Good
OZONE
Saturday Good
PM10
Sunday Good
OZONE
Sunday Good
PM10

Snow Depth

Station Depth Elevation
No new snow has been reported.

Earthquake Activity

City Distance Mag. Time & Date
No recent earthquake activity has been reported nearby.
Minimum magnitude displayed is 2.5.

Coastal Water Temperatures

Place Temperature
No Stations Reporting

Nearby Weather Stations